sensor_id;sensor_type;location;lat;lon;timestamp;P1;durP1;ratioP1;P2;durP2;ratioP2
19664;SDS011;9980;51.020;7.772;2023-02-26T00:01:27;5.13;;;4.77;;
19664;SDS011;9980;51.020;7.772;2023-02-26T00:03:58;5.53;;;5.03;;
19664;SDS011;9980;51.020;7.772;2023-02-26T00:06:30;5.23;;;4.73;;
19664;SDS011;9980;51.020;7.772;2023-02-26T00:09:00;7.60;;;4.63;;
19664;SDS011;9980;51.020;7.772;2023-02-26T00:11:29;7.03;;;5.30;;
19664;SDS011;9980;51.020;7.772;2023-02-26T00:13:57;5.57;;;5.17;;
19664;SDS011;9980;51.020;7.772;2023-02-26T00:19:02;5.33;;;4.93;;
19664;SDS011;9980;51.020;7.772;2023-02-26T00:21:34;6.17;;;5.57;;
19664;SDS011;9980;51.020;7.772;2023-02-26T00:24:02;5.43;;;5.03;;
19664;SDS011;9980;51.020;7.772;2023-02-26T00:26:32;6.00;;;5.50;;
19664;SDS011;9980;51.020;7.772;2023-02-26T00:29:00;5.60;;;5.20;;
19664;SDS011;9980;51.020;7.772;2023-02-26T00:31:29;5.37;;;4.90;;
19664;SDS011;9980;51.020;7.772;2023-02-26T00:33:56;5.57;;;5.07;;
19664;SDS011;9980;51.020;7.772;2023-02-26T00:39:21;5.60;;;5.20;;
19664;SDS011;9980;51.020;7.772;2023-02-26T00:41:57;5.60;;;5.10;;
19664;SDS011;9980;51.020;7.772;2023-02-26T00:44:25;5.53;;;5.03;;
19664;SDS011;9980;51.020;7.772;2023-02-26T00:49:44;5.47;;;4.97;;
19664;SDS011;9980;51.020;7.772;2023-02-26T00:55:12;5.40;;;5.00;;
19664;SDS011;9980;51.020;7.772;2023-02-26T00:57:39;6.13;;;5.63;;
19664;SDS011;9980;51.020;7.772;2023-02-26T01:00:06;6.47;;;5.60;;
19664;SDS011;9980;51.020;7.772;2023-02-26T01:02:35;5.37;;;4.97;;
19664;SDS011;9980;51.020;7.772;2023-02-26T01:05:04;6.13;;;5.73;;
19664;SDS011;9980;51.020;7.772;2023-02-26T01:07:36;6.20;;;5.73;;
19664;SDS011;9980;51.020;7.772;2023-02-26T01:10:15;7.80;;;5.77;;
19664;SDS011;9980;51.020;7.772;2023-02-26T01:12:43;5.83;;;5.27;;
19664;SDS011;9980;51.020;7.772;2023-02-26T01:15:10;6.17;;;5.60;;
19664;SDS011;9980;51.020;7.772;2023-02-26T01:17:40;5.97;;;5.47;;
19664;SDS011;9980;51.020;7.772;2023-02-26T01:20:20;5.67;;;5.27;;
19664;SDS011;9980;51.020;7.772;2023-02-26T01:28:09;6.10;;;5.50;;
19664;SDS011;9980;51.020;7.772;2023-02-26T01:30:36;6.50;;;6.00;;
19664;SDS011;9980;51.020;7.772;2023-02-26T01:36:08;6.83;;;6.13;;
19664;SDS011;9980;51.020;7.772;2023-02-26T01:41:54;5.80;;;5.30;;
19664;SDS011;9980;51.020;7.772;2023-02-26T01:44:41;6.83;;;6.03;;
19664;SDS011;9980;51.020;7.772;2023-02-26T01:55:18;8.13;;;7.53;;
19664;SDS011;9980;51.020;7.772;2023-02-26T01:57:49;6.37;;;5.97;;
19664;SDS011;9980;51.020;7.772;2023-02-26T02:00:21;6.17;;;5.67;;
19664;SDS011;9980;51.020;7.772;2023-02-26T02:02:48;6.63;;;6.03;;
19664;SDS011;9980;51.020;7.772;2023-02-26T02:05:37;7.53;;;6.83;;
19664;SDS011;9980;51.020;7.772;2023-02-26T02:08:23;6.63;;;6.17;;
19664;SDS011;9980;51.020;7.772;2023-02-26T02:10:51;6.63;;;6.13;;
19664;SDS011;9980;51.020;7.772;2023-02-26T02:16:07;6.83;;;6.13;;
19664;SDS011;9980;51.020;7.772;2023-02-26T02:22:33;7.07;;;6.47;;
19664;SDS011;9980;51.020;7.772;2023-02-26T02:31:19;6.70;;;6.20;;
19664;SDS011;9980;51.020;7.772;2023-02-26T02:33:56;7.23;;;6.63;;
19664;SDS011;9980;51.020;7.772;2023-02-26T02:36:44;7.30;;;6.77;;
19664;SDS011;9980;51.020;7.772;2023-02-26T02:39:39;6.70;;;6.27;;
19664;SDS011;9980;51.020;7.772;2023-02-26T02:45:14;7.17;;;6.50;;
19664;SDS011;9980;51.020;7.772;2023-02-26T02:47:52;7.10;;;6.47;;
19664;SDS011;9980;51.020;7.772;2023-02-26T02:50:29;7.07;;;6.37;;
19664;SDS011;9980;51.020;7.772;2023-02-26T02:53:25;6.53;;;5.90;;
19664;SDS011;9980;51.020;7.772;2023-02-26T02:56:00;11.43;;;6.80;;
19664;SDS011;9980;51.020;7.772;2023-02-26T02:58:37;6.53;;;6.13;;
19664;SDS011;9980;51.020;7.772;2023-02-26T03:01:12;7.20;;;6.60;;
19664;SDS011;9980;51.020;7.772;2023-02-26T03:06:29;6.67;;;5.70;;
19664;SDS011;9980;51.020;7.772;2023-02-26T03:08:56;6.57;;;5.97;;
19664;SDS011;9980;51.020;7.772;2023-02-26T03:11:25;6.93;;;6.43;;
19664;SDS011;9980;51.020;7.772;2023-02-26T03:13:52;6.47;;;5.97;;
19664;SDS011;9980;51.020;7.772;2023-02-26T03:16:28;6.43;;;5.80;;
19664;SDS011;9980;51.020;7.772;2023-02-26T03:22:20;7.17;;;6.50;;
19664;SDS011;9980;51.020;7.772;2023-02-26T03:30:22;7.07;;;6.47;;
19664;SDS011;9980;51.020;7.772;2023-02-26T03:33:47;6.23;;;5.83;;
19664;SDS011;9980;51.020;7.772;2023-02-26T03:36:30;6.97;;;6.47;;
19664;SDS011;9980;51.020;7.772;2023-02-26T03:45:06;7.00;;;5.80;;
19664;SDS011;9980;51.020;7.772;2023-02-26T03:47:41;6.80;;;6.20;;
19664;SDS011;9980;51.020;7.772;2023-02-26T03:50:26;7.00;;;6.50;;
19664;SDS011;9980;51.020;7.772;2023-02-26T03:53:18;6.77;;;6.23;;
19664;SDS011;9980;51.020;7.772;2023-02-26T03:56:01;6.93;;;6.33;;
19664;SDS011;9980;51.020;7.772;2023-02-26T03:59:07;6.20;;;5.70;;
19664;SDS011;9980;51.020;7.772;2023-02-26T04:01:40;6.43;;;5.83;;
19664;SDS011;9980;51.020;7.772;2023-02-26T04:04:32;7.30;;;6.70;;
19664;SDS011;9980;51.020;7.772;2023-02-26T04:07:15;8.03;;;6.50;;
19664;SDS011;9980;51.020;7.772;2023-02-26T04:09:45;8.47;;;6.23;;
19664;SDS011;9980;51.020;7.772;2023-02-26T04:12:24;6.50;;;6.10;;
19664;SDS011;9980;51.020;7.772;2023-02-26T04:14:53;7.40;;;6.40;;
19664;SDS011;9980;51.020;7.772;2023-02-26T04:17:23;7.10;;;6.50;;
19664;SDS011;9980;51.020;7.772;2023-02-26T04:19:50;7.20;;;6.60;;
19664;SDS011;9980;51.020;7.772;2023-02-26T04:22:17;9.50;;;6.40;;
19664;SDS011;9980;51.020;7.772;2023-02-26T04:24:44;7.17;;;6.50;;
19664;SDS011;9980;51.020;7.772;2023-02-26T04:27:13;7.03;;;6.37;;
19664;SDS011;9980;51.020;7.772;2023-02-26T04:29:39;8.43;;;6.70;;
19664;SDS011;9980;51.020;7.772;2023-02-26T04:32:06;7.60;;;6.90;;
19664;SDS011;9980;51.020;7.772;2023-02-26T04:34:35;8.70;;;6.77;;
19664;SDS011;9980;51.020;7.772;2023-02-26T04:37:04;7.03;;;6.53;;
19664;SDS011;9980;51.020;7.772;2023-02-26T04:39:31;7.67;;;6.60;;
19664;SDS011;9980;51.020;7.772;2023-02-26T04:41:58;7.83;;;6.13;;
19664;SDS011;9980;51.020;7.772;2023-02-26T04:44:26;6.60;;;6.10;;
19664;SDS011;9980;51.020;7.772;2023-02-26T04:46:52;6.30;;;5.80;;
19664;SDS011;9980;51.020;7.772;2023-02-26T04:49:19;6.67;;;6.10;;
19664;SDS011;9980;51.020;7.772;2023-02-26T04:51:47;6.90;;;6.23;;
19664;SDS011;9980;51.020;7.772;2023-02-26T04:54:15;6.67;;;6.17;;
19664;SDS011;9980;51.020;7.772;2023-02-26T04:56:42;6.80;;;6.40;;
19664;SDS011;9980;51.020;7.772;2023-02-26T04:59:09;6.77;;;6.17;;
19664;SDS011;9980;51.020;7.772;2023-02-26T05:01:36;6.67;;;6.07;;
19664;SDS011;9980;51.020;7.772;2023-02-26T05:04:06;6.40;;;5.83;;
19664;SDS011;9980;51.020;7.772;2023-02-26T05:06:33;6.27;;;5.50;;
19664;SDS011;9980;51.020;7.772;2023-02-26T05:09:00;6.20;;;5.63;;
19664;SDS011;9980;51.020;7.772;2023-02-26T05:11:27;6.43;;;5.93;;
19664;SDS011;9980;51.020;7.772;2023-02-26T05:13:54;9.37;;;5.83;;
19664;SDS011;9980;51.020;7.772;2023-02-26T05:16:21;6.17;;;5.70;;
19664;SDS011;9980;51.020;7.772;2023-02-26T05:18:49;6.67;;;6.07;;
19664;SDS011;9980;51.020;7.772;2023-02-26T05:21:16;7.83;;;6.27;;
19664;SDS011;9980;51.020;7.772;2023-02-26T05:23:44;7.20;;;6.67;;
19664;SDS011;9980;51.020;7.772;2023-02-26T05:26:11;7.03;;;6.30;;
19664;SDS011;9980;51.020;7.772;2023-02-26T05:28:39;6.83;;;6.23;;
19664;SDS011;9980;51.020;7.772;2023-02-26T05:31:06;7.00;;;6.40;;
19664;SDS011;9980;51.020;7.772;2023-02-26T05:33:33;7.00;;;6.40;;
19664;SDS011;9980;51.020;7.772;2023-02-26T05:36:01;6.53;;;6.13;;
19664;SDS011;9980;51.020;7.772;2023-02-26T05:38:27;7.80;;;7.20;;
19664;SDS011;9980;51.020;7.772;2023-02-26T05:40:55;7.17;;;6.60;;
19664;SDS011;9980;51.020;7.772;2023-02-26T05:43:24;7.70;;;7.00;;
19664;SDS011;9980;51.020;7.772;2023-02-26T05:45:52;6.83;;;6.43;;
19664;SDS011;9980;51.020;7.772;2023-02-26T05:48:21;6.70;;;6.20;;
19664;SDS011;9980;51.020;7.772;2023-02-26T05:50:49;7.50;;;6.90;;
19664;SDS011;9980;51.020;7.772;2023-02-26T05:53:16;6.63;;;6.13;;
19664;SDS011;9980;51.020;7.772;2023-02-26T05:55:44;7.10;;;6.53;;
19664;SDS011;9980;51.020;7.772;2023-02-26T05:58:12;7.30;;;6.33;;
19664;SDS011;9980;51.020;7.772;2023-02-26T06:00:40;7.00;;;6.50;;
19664;SDS011;9980;51.020;7.772;2023-02-26T06:03:08;6.93;;;6.33;;
19664;SDS011;9980;51.020;7.772;2023-02-26T06:05:34;6.57;;;6.07;;
19664;SDS011;9980;51.020;7.772;2023-02-26T06:08:03;7.70;;;6.07;;
19664;SDS011;9980;51.020;7.772;2023-02-26T06:10:31;6.57;;;6.17;;
19664;SDS011;9980;51.020;7.772;2023-02-26T06:12:59;7.03;;;6.47;;
19664;SDS011;9980;51.020;7.772;2023-02-26T06:15:26;6.50;;;5.80;;
19664;SDS011;9980;51.020;7.772;2023-02-26T06:17:53;7.00;;;6.50;;
19664;SDS011;9980;51.020;7.772;2023-02-26T06:20:20;6.73;;;6.23;;
19664;SDS011;9980;51.020;7.772;2023-02-26T06:22:47;7.30;;;6.80;;
19664;SDS011;9980;51.020;7.772;2023-02-26T06:25:14;6.60;;;6.20;;
19664;SDS011;9980;51.020;7.772;2023-02-26T06:27:41;8.80;;;6.80;;
19664;SDS011;9980;51.020;7.772;2023-02-26T06:30:08;7.47;;;6.87;;
19664;SDS011;9980;51.020;7.772;2023-02-26T06:32:35;6.70;;;6.20;;
19664;SDS011;9980;51.020;7.772;2023-02-26T06:35:03;7.03;;;6.33;;
19664;SDS011;9980;51.020;7.772;2023-02-26T06:37:31;7.37;;;6.77;;
19664;SDS011;9980;51.020;7.772;2023-02-26T06:40:04;7.33;;;6.83;;
19664;SDS011;9980;51.020;7.772;2023-02-26T06:42:32;7.73;;;6.80;;
19664;SDS011;9980;51.020;7.772;2023-02-26T06:44:58;7.30;;;6.70;;
19664;SDS011;9980;51.020;7.772;2023-02-26T06:47:25;7.73;;;7.03;;
19664;SDS011;9980;51.020;7.772;2023-02-26T06:49:54;6.83;;;6.20;;
19664;SDS011;9980;51.020;7.772;2023-02-26T06:52:21;6.77;;;6.17;;
19664;SDS011;9980;51.020;7.772;2023-02-26T06:54:48;7.10;;;6.47;;
19664;SDS011;9980;51.020;7.772;2023-02-26T06:57:15;6.67;;;6.27;;
19664;SDS011;9980;51.020;7.772;2023-02-26T06:59:42;7.87;;;7.17;;
19664;SDS011;9980;51.020;7.772;2023-02-26T07:02:12;6.73;;;6.03;;
19664;SDS011;9980;51.020;7.772;2023-02-26T07:04:44;6.77;;;6.27;;
19664;SDS011;9980;51.020;7.772;2023-02-26T07:07:11;7.57;;;6.73;;
19664;SDS011;9980;51.020;7.772;2023-02-26T07:09:39;7.53;;;6.93;;
19664;SDS011;9980;51.020;7.772;2023-02-26T07:12:06;6.93;;;6.33;;
19664;SDS011;9980;51.020;7.772;2023-02-26T07:14:33;7.30;;;6.73;;
19664;SDS011;9980;51.020;7.772;2023-02-26T07:17:00;7.17;;;6.63;;
19664;SDS011;9980;51.020;7.772;2023-02-26T07:19:28;7.67;;;6.97;;
19664;SDS011;9980;51.020;7.772;2023-02-26T07:21:55;7.13;;;6.50;;
19664;SDS011;9980;51.020;7.772;2023-02-26T07:24:22;7.07;;;6.47;;
19664;SDS011;9980;51.020;7.772;2023-02-26T07:26:49;7.30;;;6.70;;
19664;SDS011;9980;51.020;7.772;2023-02-26T07:29:16;7.33;;;6.63;;
19664;SDS011;9980;51.020;7.772;2023-02-26T07:31:43;7.37;;;6.87;;
19664;SDS011;9980;51.020;7.772;2023-02-26T07:34:11;7.80;;;7.03;;
19664;SDS011;9980;51.020;7.772;2023-02-26T07:36:38;7.57;;;6.97;;
19664;SDS011;9980;51.020;7.772;2023-02-26T07:39:05;7.23;;;6.73;;
19664;SDS011;9980;51.020;7.772;2023-02-26T07:41:32;6.70;;;6.10;;
19664;SDS011;9980;51.020;7.772;2023-02-26T07:43:58;7.07;;;6.37;;
19664;SDS011;9980;51.020;7.772;2023-02-26T07:46:27;7.53;;;6.83;;
19664;SDS011;9980;51.020;7.772;2023-02-26T07:48:54;6.83;;;6.33;;
19664;SDS011;9980;51.020;7.772;2023-02-26T07:51:21;7.00;;;6.50;;
19664;SDS011;9980;51.020;7.772;2023-02-26T07:53:48;7.43;;;6.70;;
19664;SDS011;9980;51.020;7.772;2023-02-26T07:56:15;6.40;;;6.00;;
19664;SDS011;9980;51.020;7.772;2023-02-26T07:58:42;6.77;;;6.13;;
19664;SDS011;9980;51.020;7.772;2023-02-26T08:01:09;6.53;;;5.97;;
19664;SDS011;9980;51.020;7.772;2023-02-26T08:03:36;6.47;;;5.87;;
19664;SDS011;9980;51.020;7.772;2023-02-26T08:06:02;6.37;;;5.77;;
19664;SDS011;9980;51.020;7.772;2023-02-26T08:08:30;5.33;;;4.93;;
19664;SDS011;9980;51.020;7.772;2023-02-26T08:10:58;5.60;;;5.10;;
19664;SDS011;9980;51.020;7.772;2023-02-26T08:13:26;6.33;;;5.83;;
19664;SDS011;9980;51.020;7.772;2023-02-26T08:15:53;6.63;;;5.70;;
19664;SDS011;9980;51.020;7.772;2023-02-26T08:18:20;5.70;;;5.30;;
19664;SDS011;9980;51.020;7.772;2023-02-26T08:20:49;6.03;;;5.63;;
19664;SDS011;9980;51.020;7.772;2023-02-26T08:23:17;6.37;;;5.83;;
19664;SDS011;9980;51.020;7.772;2023-02-26T08:25:45;5.67;;;5.17;;
19664;SDS011;9980;51.020;7.772;2023-02-26T08:28:12;5.53;;;5.07;;
19664;SDS011;9980;51.020;7.772;2023-02-26T08:30:39;5.70;;;5.30;;
19664;SDS011;9980;51.020;7.772;2023-02-26T08:33:05;5.67;;;5.27;;
19664;SDS011;9980;51.020;7.772;2023-02-26T08:35:32;5.90;;;5.50;;
19664;SDS011;9980;51.020;7.772;2023-02-26T08:37:59;5.30;;;5.00;;
19664;SDS011;9980;51.020;7.772;2023-02-26T08:40:29;6.30;;;5.70;;
19664;SDS011;9980;51.020;7.772;2023-02-26T08:42:56;5.23;;;4.93;;
19664;SDS011;9980;51.020;7.772;2023-02-26T08:45:25;6.30;;;5.47;;
19664;SDS011;9980;51.020;7.772;2023-02-26T08:47:52;5.97;;;5.47;;
19664;SDS011;9980;51.020;7.772;2023-02-26T08:50:23;5.50;;;5.20;;
19664;SDS011;9980;51.020;7.772;2023-02-26T08:52:51;6.83;;;5.20;;
19664;SDS011;9980;51.020;7.772;2023-02-26T08:55:18;6.50;;;4.70;;
19664;SDS011;9980;51.020;7.772;2023-02-26T08:57:45;6.03;;;4.73;;
19664;SDS011;9980;51.020;7.772;2023-02-26T09:00:13;4.77;;;4.47;;
19664;SDS011;9980;51.020;7.772;2023-02-26T09:02:44;5.40;;;5.00;;
19664;SDS011;9980;51.020;7.772;2023-02-26T09:05:11;5.60;;;5.03;;
19664;SDS011;9980;51.020;7.772;2023-02-26T09:07:40;5.37;;;4.90;;
19664;SDS011;9980;51.020;7.772;2023-02-26T09:10:08;5.80;;;5.10;;
19664;SDS011;9980;51.020;7.772;2023-02-26T09:12:36;4.97;;;4.67;;
19664;SDS011;9980;51.020;7.772;2023-02-26T09:15:04;5.40;;;4.97;;
19664;SDS011;9980;51.020;7.772;2023-02-26T09:17:34;4.70;;;4.40;;
19664;SDS011;9980;51.020;7.772;2023-02-26T09:20:02;4.53;;;4.23;;
19664;SDS011;9980;51.020;7.772;2023-02-26T09:22:30;5.10;;;4.60;;
19664;SDS011;9980;51.020;7.772;2023-02-26T09:24:57;7.93;;;4.93;;
19664;SDS011;9980;51.020;7.772;2023-02-26T09:27:25;4.90;;;4.50;;
19664;SDS011;9980;51.020;7.772;2023-02-26T09:29:52;5.60;;;4.83;;
19664;SDS011;9980;51.020;7.772;2023-02-26T09:32:19;5.17;;;4.70;;
19664;SDS011;9980;51.020;7.772;2023-02-26T09:34:46;5.17;;;4.67;;
19664;SDS011;9980;51.020;7.772;2023-02-26T09:37:16;4.80;;;4.40;;
19664;SDS011;9980;51.020;7.772;2023-02-26T09:39:46;4.50;;;4.10;;
19664;SDS011;9980;51.020;7.772;2023-02-26T09:45:02;4.43;;;4.20;;
19664;SDS011;9980;51.020;7.772;2023-02-26T09:47:35;5.73;;;5.13;;
19664;SDS011;9980;51.020;7.772;2023-02-26T09:56:15;6.83;;;6.23;;
19664;SDS011;9980;51.020;7.772;2023-02-26T09:58:46;5.47;;;4.97;;
19664;SDS011;9980;51.020;7.772;2023-02-26T10:07:23;5.53;;;5.00;;
19664;SDS011;9980;51.020;7.772;2023-02-26T10:13:00;12.67;;;8.20;;
19664;SDS011;9980;51.020;7.772;2023-02-26T10:15:29;10.90;;;8.77;;
19664;SDS011;9980;51.020;7.772;2023-02-26T10:18:24;7.63;;;6.93;;
19664;SDS011;9980;51.020;7.772;2023-02-26T10:21:00;7.80;;;6.10;;
19664;SDS011;9980;51.020;7.772;2023-02-26T10:23:40;6.60;;;5.97;;
19664;SDS011;9980;51.020;7.772;2023-02-26T10:26:29;7.47;;;6.77;;
19664;SDS011;9980;51.020;7.772;2023-02-26T10:35:07;4.87;;;4.13;;
19664;SDS011;9980;51.020;7.772;2023-02-26T10:37:45;4.27;;;3.97;;
19664;SDS011;9980;51.020;7.772;2023-02-26T10:43:20;3.47;;;3.27;;
19664;SDS011;9980;51.020;7.772;2023-02-26T10:48:54;3.97;;;3.70;;
19664;SDS011;9980;51.020;7.772;2023-02-26T10:52:13;3.97;;;3.70;;
19664;SDS011;9980;51.020;7.772;2023-02-26T10:55:22;3.97;;;3.73;;
19664;SDS011;9980;51.020;7.772;2023-02-26T11:00:39;3.47;;;3.27;;
19664;SDS011;9980;51.020;7.772;2023-02-26T11:03:12;4.23;;;3.93;;
19664;SDS011;9980;51.020;7.772;2023-02-26T11:05:47;4.57;;;4.23;;
19664;SDS011;9980;51.020;7.772;2023-02-26T11:08:15;3.77;;;3.40;;
19664;SDS011;9980;51.020;7.772;2023-02-26T11:10:55;3.50;;;3.30;;
19664;SDS011;9980;51.020;7.772;2023-02-26T11:13:29;3.47;;;3.27;;
19664;SDS011;9980;51.020;7.772;2023-02-26T11:16:01;5.13;;;4.63;;
19664;SDS011;9980;51.020;7.772;2023-02-26T11:18:54;4.93;;;4.53;;
19664;SDS011;9980;51.020;7.772;2023-02-26T11:21:27;3.60;;;3.30;;
19664;SDS011;9980;51.020;7.772;2023-02-26T11:24:02;3.80;;;3.60;;
19664;SDS011;9980;51.020;7.772;2023-02-26T11:26:36;3.90;;;3.50;;
19664;SDS011;9980;51.020;7.772;2023-02-26T11:29:11;3.43;;;3.17;;
19664;SDS011;9980;51.020;7.772;2023-02-26T11:31:51;3.70;;;3.50;;
19664;SDS011;9980;51.020;7.772;2023-02-26T11:34:26;4.30;;;3.77;;
19664;SDS011;9980;51.020;7.772;2023-02-26T11:36:56;4.10;;;3.67;;
19664;SDS011;9980;51.020;7.772;2023-02-26T11:39:27;3.70;;;3.50;;
19664;SDS011;9980;51.020;7.772;2023-02-26T11:41:59;4.10;;;3.53;;
19664;SDS011;9980;51.020;7.772;2023-02-26T11:44:44;3.63;;;3.33;;
19664;SDS011;9980;51.020;7.772;2023-02-26T11:47:14;3.70;;;3.50;;
19664;SDS011;9980;51.020;7.772;2023-02-26T11:49:51;3.60;;;3.30;;
19664;SDS011;9980;51.020;7.772;2023-02-26T11:54:56;4.30;;;4.00;;
19664;SDS011;9980;51.020;7.772;2023-02-26T11:57:55;3.80;;;3.50;;
19664;SDS011;9980;51.020;7.772;2023-02-26T12:00:24;4.50;;;4.10;;
19664;SDS011;9980;51.020;7.772;2023-02-26T12:03:04;4.87;;;4.43;;
19664;SDS011;9980;51.020;7.772;2023-02-26T12:05:41;4.80;;;4.10;;
19664;SDS011;9980;51.020;7.772;2023-02-26T12:16:52;4.67;;;4.27;;
19664;SDS011;9980;51.020;7.772;2023-02-26T12:19:59;3.93;;;3.63;;
19664;SDS011;9980;51.020;7.772;2023-02-26T12:26:19;4.23;;;3.57;;
19664;SDS011;9980;51.020;7.772;2023-02-26T12:40:59;3.83;;;3.30;;
19664;SDS011;9980;51.020;7.772;2023-02-26T12:43:48;5.37;;;4.87;;
19664;SDS011;9980;51.020;7.772;2023-02-26T12:46:27;5.13;;;4.73;;
19664;SDS011;9980;51.020;7.772;2023-02-26T12:49:30;3.83;;;3.57;;
19664;SDS011;9980;51.020;7.772;2023-02-26T12:55:16;4.73;;;3.50;;
19664;SDS011;9980;51.020;7.772;2023-02-26T13:01:03;3.27;;;3.07;;
19664;SDS011;9980;51.020;7.772;2023-02-26T13:04:15;3.57;;;3.37;;
19664;SDS011;9980;51.020;7.772;2023-02-26T13:10:09;3.37;;;3.17;;
19664;SDS011;9980;51.020;7.772;2023-02-26T13:19:04;3.63;;;3.37;;
19664;SDS011;9980;51.020;7.772;2023-02-26T13:21:43;5.53;;;2.90;;
19664;SDS011;9980;51.020;7.772;2023-02-26T13:24:22;3.07;;;2.80;;
19664;SDS011;9980;51.020;7.772;2023-02-26T13:27:43;3.00;;;2.80;;
19664;SDS011;9980;51.020;7.772;2023-02-26T13:30:21;3.00;;;2.80;;
19664;SDS011;9980;51.020;7.772;2023-02-26T13:32:55;3.40;;;2.97;;
19664;SDS011;9980;51.020;7.772;2023-02-26T13:35:43;4.20;;;2.90;;
19664;SDS011;9980;51.020;7.772;2023-02-26T13:38:16;3.47;;;3.20;;
19664;SDS011;9980;51.020;7.772;2023-02-26T13:41:11;3.30;;;3.03;;
19664;SDS011;9980;51.020;7.772;2023-02-26T13:44:11;3.80;;;3.17;;
19664;SDS011;9980;51.020;7.772;2023-02-26T13:47:12;3.57;;;3.37;;
19664;SDS011;9980;51.020;7.772;2023-02-26T14:06:48;3.73;;;3.50;;
19664;SDS011;9980;51.020;7.772;2023-02-26T14:14:39;3.53;;;3.17;;
19664;SDS011;9980;51.020;7.772;2023-02-26T14:22:18;3.30;;;3.00;;
19664;SDS011;9980;51.020;7.772;2023-02-26T14:33:30;2.97;;;2.77;;
19664;SDS011;9980;51.020;7.772;2023-02-26T14:36:05;2.90;;;2.70;;
19664;SDS011;9980;51.020;7.772;2023-02-26T14:38:57;3.30;;;3.10;;
19664;SDS011;9980;51.020;7.772;2023-02-26T14:41:31;3.40;;;3.10;;
19664;SDS011;9980;51.020;7.772;2023-02-26T14:44:21;3.47;;;3.27;;
19664;SDS011;9980;51.020;7.772;2023-02-26T14:46:54;2.87;;;2.67;;
19664;SDS011;9980;51.020;7.772;2023-02-26T14:49:25;3.37;;;2.90;;
19664;SDS011;9980;51.020;7.772;2023-02-26T14:55:00;3.70;;;3.50;;
19664;SDS011;9980;51.020;7.772;2023-02-26T14:57:51;4.67;;;3.50;;
19664;SDS011;9980;51.020;7.772;2023-02-26T15:15:27;4.47;;;4.07;;
19664;SDS011;9980;51.020;7.772;2023-02-26T15:24:04;3.20;;;3.00;;
19664;SDS011;9980;51.020;7.772;2023-02-26T15:26:36;3.40;;;3.20;;
19664;SDS011;9980;51.020;7.772;2023-02-26T15:29:36;6.83;;;3.17;;
19664;SDS011;9980;51.020;7.772;2023-02-26T15:32:14;3.30;;;3.10;;
19664;SDS011;9980;51.020;7.772;2023-02-26T15:34:47;3.10;;;3.00;;
19664;SDS011;9980;51.020;7.772;2023-02-26T15:37:25;3.73;;;3.53;;
19664;SDS011;9980;51.020;7.772;2023-02-26T15:39:59;3.60;;;3.40;;
19664;SDS011;9980;51.020;7.772;2023-02-26T15:42:31;3.60;;;3.40;;
19664;SDS011;9980;51.020;7.772;2023-02-26T15:45:05;3.80;;;3.50;;
19664;SDS011;9980;51.020;7.772;2023-02-26T15:47:58;3.53;;;3.23;;
19664;SDS011;9980;51.020;7.772;2023-02-26T15:50:32;3.40;;;3.20;;
19664;SDS011;9980;51.020;7.772;2023-02-26T15:53:12;3.40;;;3.23;;
19664;SDS011;9980;51.020;7.772;2023-02-26T15:55:50;4.73;;;3.53;;
19664;SDS011;9980;51.020;7.772;2023-02-26T15:58:28;3.63;;;3.33;;
19664;SDS011;9980;51.020;7.772;2023-02-26T16:01:13;3.53;;;3.33;;
19664;SDS011;9980;51.020;7.772;2023-02-26T16:03:43;3.63;;;3.40;;
19664;SDS011;9980;51.020;7.772;2023-02-26T16:06:19;3.33;;;3.13;;
19664;SDS011;9980;51.020;7.772;2023-02-26T16:08:51;3.57;;;3.37;;
19664;SDS011;9980;51.020;7.772;2023-02-26T16:11:18;3.67;;;3.47;;
19664;SDS011;9980;51.020;7.772;2023-02-26T16:13:48;3.30;;;3.10;;
19664;SDS011;9980;51.020;7.772;2023-02-26T16:16:21;3.93;;;3.47;;
19664;SDS011;9980;51.020;7.772;2023-02-26T16:18:54;3.43;;;3.23;;
19664;SDS011;9980;51.020;7.772;2023-02-26T16:21:27;3.40;;;3.20;;
19664;SDS011;9980;51.020;7.772;2023-02-26T16:24:01;3.50;;;3.30;;
19664;SDS011;9980;51.020;7.772;2023-02-26T16:26:42;3.60;;;3.30;;
19664;SDS011;9980;51.020;7.772;2023-02-26T16:29:18;3.70;;;3.50;;
19664;SDS011;9980;51.020;7.772;2023-02-26T16:31:50;3.40;;;3.27;;
19664;SDS011;9980;51.020;7.772;2023-02-26T16:34:29;3.60;;;3.30;;
19664;SDS011;9980;51.020;7.772;2023-02-26T16:37:31;3.50;;;3.30;;
19664;SDS011;9980;51.020;7.772;2023-02-26T16:45:43;3.70;;;3.50;;
19664;SDS011;9980;51.020;7.772;2023-02-26T16:48:17;3.57;;;3.27;;
19664;SDS011;9980;51.020;7.772;2023-02-26T16:51:13;3.50;;;3.30;;
19664;SDS011;9980;51.020;7.772;2023-02-26T16:53:46;3.73;;;3.43;;
19664;SDS011;9980;51.020;7.772;2023-02-26T16:56:22;3.70;;;3.50;;
19664;SDS011;9980;51.020;7.772;2023-02-26T17:01:40;3.93;;;3.63;;
19664;SDS011;9980;51.020;7.772;2023-02-26T17:04:27;4.13;;;3.73;;
19664;SDS011;9980;51.020;7.772;2023-02-26T17:07:01;3.70;;;3.40;;
19664;SDS011;9980;51.020;7.772;2023-02-26T17:09:46;4.20;;;3.80;;
19664;SDS011;9980;51.020;7.772;2023-02-26T17:12:22;3.73;;;3.50;;
19664;SDS011;9980;51.020;7.772;2023-02-26T17:15:10;3.43;;;3.20;;
19664;SDS011;9980;51.020;7.772;2023-02-26T17:18:02;4.00;;;3.60;;
19664;SDS011;9980;51.020;7.772;2023-02-26T17:20:30;3.60;;;3.30;;
19664;SDS011;9980;51.020;7.772;2023-02-26T17:23:03;3.67;;;3.40;;
19664;SDS011;9980;51.020;7.772;2023-02-26T17:25:37;5.27;;;3.90;;
19664;SDS011;9980;51.020;7.772;2023-02-26T17:31:11;27.83;;;6.77;;
19664;SDS011;9980;51.020;7.772;2023-02-26T17:33:41;6.70;;;5.97;;
19664;SDS011;9980;51.020;7.772;2023-02-26T17:36:14;7.03;;;5.03;;
19664;SDS011;9980;51.020;7.772;2023-02-26T17:38:43;5.07;;;4.43;;
19664;SDS011;9980;51.020;7.772;2023-02-26T17:41:16;4.40;;;4.03;;
19664;SDS011;9980;51.020;7.772;2023-02-26T17:43:44;4.47;;;3.90;;
19664;SDS011;9980;51.020;7.772;2023-02-26T17:46:11;3.90;;;3.63;;
19664;SDS011;9980;51.020;7.772;2023-02-26T17:48:38;3.80;;;3.60;;
19664;SDS011;9980;51.020;7.772;2023-02-26T17:51:05;5.57;;;3.90;;
19664;SDS011;9980;51.020;7.772;2023-02-26T17:53:34;4.23;;;3.90;;
19664;SDS011;9980;51.020;7.772;2023-02-26T17:56:09;4.33;;;3.93;;
19664;SDS011;9980;51.020;7.772;2023-02-26T17:58:46;5.73;;;5.23;;
19664;SDS011;9980;51.020;7.772;2023-02-26T18:01:15;6.20;;;5.53;;
19664;SDS011;9980;51.020;7.772;2023-02-26T18:03:42;4.87;;;4.40;;
19664;SDS011;9980;51.020;7.772;2023-02-26T18:06:10;4.90;;;4.50;;
19664;SDS011;9980;51.020;7.772;2023-02-26T18:08:40;5.53;;;4.47;;
19664;SDS011;9980;51.020;7.772;2023-02-26T18:11:09;5.23;;;4.83;;
19664;SDS011;9980;51.020;7.772;2023-02-26T18:13:38;5.00;;;4.60;;
19664;SDS011;9980;51.020;7.772;2023-02-26T18:16:05;4.73;;;4.40;;
19664;SDS011;9980;51.020;7.772;2023-02-26T18:18:42;4.80;;;4.50;;
19664;SDS011;9980;51.020;7.772;2023-02-26T18:21:09;5.17;;;4.40;;
19664;SDS011;9980;51.020;7.772;2023-02-26T18:23:37;8.43;;;4.00;;
19664;SDS011;9980;51.020;7.772;2023-02-26T18:26:13;4.27;;;4.00;;
19664;SDS011;9980;51.020;7.772;2023-02-26T18:28:45;4.63;;;4.33;;
19664;SDS011;9980;51.020;7.772;2023-02-26T18:31:15;4.47;;;4.17;;
19664;SDS011;9980;51.020;7.772;2023-02-26T18:33:45;4.80;;;4.40;;
19664;SDS011;9980;51.020;7.772;2023-02-26T18:36:16;7.30;;;5.07;;
19664;SDS011;9980;51.020;7.772;2023-02-26T18:39:03;4.87;;;4.57;;
19664;SDS011;9980;51.020;7.772;2023-02-26T18:41:45;4.70;;;4.40;;
19664;SDS011;9980;51.020;7.772;2023-02-26T18:44:17;4.90;;;4.53;;
19664;SDS011;9980;51.020;7.772;2023-02-26T18:46:44;5.13;;;4.77;;
19664;SDS011;9980;51.020;7.772;2023-02-26T18:49:17;4.40;;;4.07;;
19664;SDS011;9980;51.020;7.772;2023-02-26T18:51:48;4.30;;;4.10;;
19664;SDS011;9980;51.020;7.772;2023-02-26T18:54:16;4.73;;;4.33;;
19664;SDS011;9980;51.020;7.772;2023-02-26T18:56:45;4.30;;;4.00;;
19664;SDS011;9980;51.020;7.772;2023-02-26T18:59:12;4.60;;;4.10;;
19664;SDS011;9980;51.020;7.772;2023-02-26T19:01:54;4.30;;;4.10;;
19664;SDS011;9980;51.020;7.772;2023-02-26T19:04:27;22.13;;;15.10;;
19664;SDS011;9980;51.020;7.772;2023-02-26T19:06:56;27.80;;;18.63;;
19664;SDS011;9980;51.020;7.772;2023-02-26T19:09:23;57.50;;;33.67;;